createdAt,value
2019-03-03T00:00:23.222Z,26.40
2019-03-03T00:02:51.483Z,23.00
2019-03-03T00:05:19.749Z,21.73
2019-03-03T00:07:48.011Z,20.10
2019-03-03T00:10:16.300Z,19.33
2019-03-03T00:12:44.562Z,27.97
2019-03-03T00:15:13.094Z,18.13
2019-03-03T00:17:41.362Z,18.17
2019-03-03T00:20:11.662Z,20.80
2019-03-03T00:22:39.929Z,18.30
2019-03-03T00:25:10.590Z,18.67
2019-03-03T00:27:38.849Z,18.20
2019-03-03T00:30:17.886Z,16.67
2019-03-03T00:32:46.216Z,23.53
2019-03-03T00:35:14.544Z,18.00
2019-03-03T00:37:47.419Z,16.93
2019-03-03T00:40:29.539Z,14.33
2019-03-03T00:43:02.187Z,17.67
2019-03-03T00:45:41.177Z,18.87
2019-03-03T00:48:22.743Z,20.97
2019-03-03T00:51:04.403Z,14.87
2019-03-03T00:53:37.020Z,15.80
2019-03-03T00:56:06.924Z,13.30
2019-03-03T00:58:36.858Z,20.57
2019-03-03T01:01:12.967Z,12.70
2019-03-03T01:03:42.877Z,13.07
2019-03-03T01:06:27.821Z,14.87
2019-03-03T01:09:00.459Z,13.30
2019-03-03T01:11:39.107Z,14.00
2019-03-03T01:14:09.035Z,10.97
2019-03-03T01:16:44.478Z,10.03
2019-03-03T01:19:30.606Z,12.80
2019-03-03T01:22:00.504Z,12.90
2019-03-03T01:24:32.823Z,11.27
2019-03-03T01:27:01.084Z,13.03
2019-03-03T01:29:29.336Z,10.63
2019-03-03T01:31:57.601Z,11.37
2019-03-03T01:34:25.861Z,9.97
2019-03-03T01:36:54.279Z,10.77
2019-03-03T01:39:22.542Z,12.53
2019-03-03T01:41:50.794Z,10.73
2019-03-03T01:44:19.043Z,11.60
2019-03-03T01:46:47.340Z,9.50
2019-03-03T01:49:15.706Z,9.07
2019-03-03T01:51:43.970Z,10.73
2019-03-03T01:54:12.231Z,9.07
2019-03-03T01:56:40.483Z,12.93
2019-03-03T01:59:08.783Z,9.97
2019-03-03T02:01:37.031Z,12.03
2019-03-03T02:04:05.286Z,9.33
2019-03-03T02:06:33.548Z,9.30
2019-03-03T02:09:01.796Z,11.83
2019-03-03T02:11:30.059Z,7.60
2019-03-03T02:13:58.388Z,8.17
2019-03-03T02:16:26.636Z,8.10
2019-03-03T02:18:54.889Z,9.70
2019-03-03T02:21:23.137Z,11.67
2019-03-03T02:23:51.398Z,7.80
2019-03-03T02:26:19.644Z,6.40
2019-03-03T02:28:47.901Z,8.33
2019-03-03T02:31:16.159Z,10.33
2019-03-03T02:33:44.413Z,6.57
2019-03-03T02:36:12.666Z,6.87
2019-03-03T02:38:40.921Z,9.83
2019-03-03T02:41:09.179Z,8.23
2019-03-03T02:43:41.635Z,9.93
2019-03-03T02:46:09.866Z,8.27
2019-03-03T02:48:38.112Z,7.77
2019-03-03T02:51:06.365Z,7.67
2019-03-03T02:53:34.619Z,7.23
2019-03-03T02:56:02.889Z,9.10
2019-03-03T02:58:31.138Z,6.70
2019-03-03T03:01:01.023Z,7.93
2019-03-03T03:03:29.297Z,11.53
2019-03-03T03:06:15.332Z,9.93
2019-03-03T03:08:45.245Z,9.23
2019-03-03T03:11:21.396Z,10.57
2019-03-03T03:13:51.351Z,7.13
2019-03-03T03:16:30.257Z,7.43
2019-03-03T03:19:00.184Z,8.57
2019-03-03T03:21:39.188Z,15.83
2019-03-03T03:24:24.094Z,7.20
2019-03-03T03:27:02.942Z,9.67
2019-03-03T03:29:38.885Z,11.17
2019-03-03T03:32:08.786Z,9.00
2019-03-03T03:34:50.756Z,12.30
2019-03-03T03:37:26.324Z,6.83
2019-03-03T03:40:04.891Z,7.17
2019-03-03T03:42:34.787Z,6.50
2019-03-03T03:45:04.701Z,10.53
2019-03-03T03:47:46.191Z,8.93
2019-03-03T03:50:18.769Z,10.43
2019-03-03T03:52:48.661Z,10.63
2019-03-03T03:55:30.824Z,9.17
2019-03-03T03:58:06.483Z,8.07
2019-03-03T04:00:36.355Z,7.30
2019-03-03T04:03:12.023Z,8.63
2019-03-03T04:05:57.994Z,8.43
2019-03-03T04:08:33.819Z,9.13
2019-03-03T04:11:20.124Z,8.47
2019-03-03T04:13:50.016Z,9.90
2019-03-03T04:16:22.598Z,8.33
2019-03-03T04:19:10.373Z,8.23
2019-03-03T04:21:49.120Z,13.70
2019-03-03T04:24:24.956Z,7.93
2019-03-03T04:27:03.872Z,10.23
2019-03-03T04:29:33.784Z,8.70
2019-03-03T04:32:21.840Z,8.17
2019-03-03T04:34:57.411Z,8.97
2019-03-03T04:37:33.116Z,9.60
2019-03-03T04:40:11.999Z,7.53
2019-03-03T04:42:44.762Z,7.80
2019-03-03T04:45:16.335Z,11.67
2019-03-03T04:47:48.923Z,7.27
2019-03-03T04:50:27.870Z,8.33
2019-03-03T04:52:57.798Z,8.87
2019-03-03T04:55:46.133Z,7.57
2019-03-03T04:58:24.978Z,7.20
2019-03-03T05:00:57.667Z,11.37
2019-03-03T05:03:39.519Z,9.63
2019-03-03T05:06:21.231Z,8.10
2019-03-03T05:08:53.893Z,9.83
2019-03-03T05:12:04.695Z,9.10
2019-03-03T05:14:43.590Z,11.23
2019-03-03T05:17:19.211Z,12.03
2019-03-03T05:19:49.124Z,10.80
2019-03-03T05:22:17.392Z,10.13
2019-03-03T05:24:45.650Z,11.43
2019-03-03T05:27:13.912Z,10.37
2019-03-03T05:29:42.203Z,10.20
2019-03-03T05:32:10.459Z,12.57
2019-03-03T05:34:38.728Z,11.80
2019-03-03T05:37:06.988Z,10.77
2019-03-03T05:39:35.235Z,11.87
2019-03-03T05:42:03.506Z,10.40
2019-03-03T05:44:31.785Z,11.77
2019-03-03T05:47:00.059Z,12.37
2019-03-03T05:49:28.689Z,11.53
2019-03-03T05:51:56.935Z,9.67
2019-03-03T05:54:25.632Z,10.80
2019-03-03T05:56:53.976Z,11.13
2019-03-03T05:59:22.255Z,9.67
2019-03-03T06:01:50.525Z,9.97
2019-03-03T06:04:18.762Z,9.27
2019-03-03T06:06:47.024Z,11.77
2019-03-03T06:09:15.278Z,9.17
2019-03-03T06:11:43.547Z,11.33
2019-03-03T06:14:11.802Z,10.93
2019-03-03T06:16:40.060Z,11.57
2019-03-03T06:19:08.316Z,11.03
2019-03-03T06:21:36.592Z,11.27
2019-03-03T06:24:09.351Z,10.37
2019-03-03T06:26:37.600Z,9.97
2019-03-03T06:29:05.883Z,11.80
2019-03-03T06:31:34.131Z,9.00
2019-03-03T06:34:02.384Z,7.77
2019-03-03T06:36:30.637Z,8.50
2019-03-03T06:38:58.890Z,10.23
2019-03-03T06:41:27.144Z,8.30
2019-03-03T06:43:55.393Z,9.00
2019-03-03T06:46:23.684Z,7.30
2019-03-03T06:48:51.932Z,9.00
2019-03-03T06:51:20.197Z,9.17
2019-03-03T06:53:48.450Z,9.93
2019-03-03T06:56:16.702Z,6.70
2019-03-03T06:58:44.953Z,9.37
2019-03-03T07:01:13.211Z,9.80
2019-03-03T07:03:41.460Z,8.17
2019-03-03T07:06:09.715Z,5.83
2019-03-03T07:08:37.965Z,6.93
2019-03-03T07:11:06.241Z,6.80
2019-03-03T07:13:34.497Z,6.57
2019-03-03T07:16:02.748Z,9.10
2019-03-03T07:18:31.012Z,6.53
2019-03-03T07:20:59.252Z,8.73
2019-03-03T07:23:27.508Z,8.97
2019-03-03T07:25:55.761Z,9.63
2019-03-03T07:28:24.037Z,7.13
2019-03-03T07:30:52.289Z,8.93
2019-03-03T07:33:24.887Z,9.07
2019-03-03T07:35:53.143Z,7.70
2019-03-03T07:38:21.389Z,8.17
2019-03-03T07:40:49.665Z,7.70
2019-03-03T07:43:17.922Z,7.37
2019-03-03T07:45:46.178Z,9.43
2019-03-03T07:48:14.450Z,10.83
2019-03-03T07:50:42.713Z,5.90
2019-03-03T07:53:10.962Z,8.37
2019-03-03T07:55:39.212Z,7.87
2019-03-03T07:58:07.464Z,5.70
2019-03-03T08:00:35.725Z,6.20
2019-03-03T08:03:04.579Z,9.93
2019-03-03T08:05:32.833Z,6.43
2019-03-03T08:08:01.086Z,7.90
2019-03-03T08:10:29.339Z,8.13
2019-03-03T08:12:57.598Z,5.80
2019-03-03T08:15:25.844Z,7.80
2019-03-03T08:17:54.098Z,9.13
2019-03-03T08:20:22.357Z,9.33
2019-03-03T08:22:50.608Z,8.13
2019-03-03T08:25:18.862Z,9.87
2019-03-03T08:27:47.152Z,6.97
2019-03-03T08:30:16.917Z,8.83
2019-03-03T08:32:45.198Z,7.23
2019-03-03T08:35:22.439Z,8.73
2019-03-03T08:37:50.729Z,6.57
2019-03-03T08:40:18.987Z,6.07
2019-03-03T08:42:57.582Z,7.00
2019-03-03T08:45:39.274Z,8.17
2019-03-03T08:48:15.099Z,5.67
2019-03-03T08:50:47.716Z,8.37
2019-03-03T08:53:20.273Z,8.53
2019-03-03T08:55:52.931Z,6.07
2019-03-03T08:58:22.839Z,5.30
2019-03-03T09:00:52.738Z,8.20
2019-03-03T09:03:28.784Z,10.20
2019-03-03T09:06:07.705Z,6.70
2019-03-03T09:08:40.597Z,8.20
2019-03-03T09:11:28.633Z,11.53
2019-03-03T09:14:01.008Z,6.23
2019-03-03T09:16:48.307Z,10.60
2019-03-03T09:19:30.187Z,8.37
2019-03-03T09:22:18.427Z,8.13
2019-03-03T09:25:04.392Z,7.87
2019-03-03T09:27:52.542Z,9.53
2019-03-03T09:30:38.467Z,8.47
2019-03-03T09:33:14.063Z,7.97
2019-03-03T09:35:46.724Z,16.83
2019-03-03T09:38:19.393Z,6.90
2019-03-03T09:40:49.288Z,5.67
2019-03-03T09:43:21.850Z,7.23
2019-03-03T09:45:54.655Z,7.03
2019-03-03T09:48:30.437Z,9.60
2019-03-03T09:51:16.450Z,9.07
2019-03-03T09:53:46.349Z,7.43
2019-03-03T09:56:28.359Z,6.83
2019-03-03T09:59:00.917Z,10.27
2019-03-03T10:01:36.782Z,8.13
2019-03-03T10:04:12.156Z,10.33
2019-03-03T10:06:42.087Z,11.47
2019-03-03T10:09:20.704Z,10.07
2019-03-03T10:11:53.452Z,6.53
2019-03-03T10:14:41.615Z,6.20
2019-03-03T10:17:11.591Z,7.63
2019-03-03T10:19:44.095Z,4.73
2019-03-03T10:22:14.008Z,11.30
2019-03-03T10:25:00.276Z,11.50
2019-03-03T10:27:30.191Z,6.93
2019-03-03T10:30:06.354Z,14.13
2019-03-03T10:32:48.236Z,11.20
2019-03-03T10:35:20.927Z,5.93
2019-03-03T10:38:02.806Z,7.33
2019-03-03T10:40:35.648Z,5.67
2019-03-03T10:43:05.562Z,6.00
2019-03-03T10:45:35.461Z,9.13
2019-03-03T10:48:08.308Z,7.47
2019-03-03T10:50:50.498Z,7.63
2019-03-03T10:53:23.117Z,5.67
2019-03-03T10:55:53.062Z,9.83
2019-03-03T10:58:32.122Z,6.37
2019-03-03T11:01:08.006Z,8.40
2019-03-03T11:03:44.004Z,6.00
2019-03-03T11:06:20.013Z,7.37
2019-03-03T11:09:06.016Z,9.53
2019-03-03T11:11:35.941Z,7.00
2019-03-03T11:14:08.732Z,9.97
2019-03-03T11:16:53.862Z,11.10
2019-03-03T11:19:29.343Z,12.80
2019-03-03T11:22:05.255Z,10.57
2019-03-03T11:24:35.146Z,5.33
2019-03-03T11:27:13.792Z,11.17
2019-03-03T11:29:59.615Z,8.93
2019-03-03T11:32:38.572Z,5.93
2019-03-03T11:35:24.408Z,9.07
2019-03-03T11:37:57.097Z,8.83
2019-03-03T11:40:32.932Z,8.83
2019-03-03T11:43:05.495Z,8.93
2019-03-03T11:45:52.096Z,9.17
2019-03-03T11:48:37.920Z,8.73
2019-03-03T11:51:07.813Z,9.97
2019-03-03T11:53:40.450Z,7.63
2019-03-03T11:56:10.366Z,9.77
2019-03-03T11:58:40.260Z,9.23
2019-03-03T12:01:26.591Z,7.43
2019-03-03T12:04:12.860Z,8.43
2019-03-03T12:06:58.879Z,12.37
2019-03-03T12:09:28.775Z,8.63
2019-03-03T12:12:14.776Z,4.80
2019-03-03T12:14:44.717Z,7.40
2019-03-03T12:17:30.747Z,6.50
2019-03-03T12:20:12.480Z,8.10
2019-03-03T12:22:42.380Z,6.60
2019-03-03T12:25:28.771Z,11.07
2019-03-03T12:27:58.664Z,6.97
2019-03-03T12:30:28.691Z,9.83
2019-03-03T12:33:13.860Z,7.53
2019-03-03T12:35:43.758Z,6.43
2019-03-03T12:38:19.384Z,10.37
2019-03-03T12:41:01.262Z,6.43
2019-03-03T12:43:33.852Z,7.70
2019-03-03T12:46:09.471Z,8.80
2019-03-03T12:48:45.389Z,11.40
2019-03-03T12:51:15.288Z,7.97
2019-03-03T12:53:47.853Z,6.00
2019-03-03T12:56:26.518Z,7.70
2019-03-03T12:58:56.415Z,9.80
2019-03-03T13:01:28.765Z,10.23
2019-03-03T13:04:16.897Z,7.10
2019-03-03T13:06:49.256Z,10.77
2019-03-03T13:09:35.261Z,9.53
2019-03-03T13:12:05.180Z,8.40
2019-03-03T13:14:35.089Z,10.77
2019-03-03T13:17:13.771Z,7.67
2019-03-03T13:19:43.656Z,9.47
2019-03-03T13:22:29.760Z,8.73
2019-03-03T13:25:05.559Z,16.13
2019-03-03T13:27:35.488Z,12.47
2019-03-03T13:30:17.046Z,4.10
2019-03-03T13:32:49.943Z,8.43
2019-03-03T13:35:19.905Z,6.97
2019-03-03T13:37:55.732Z,7.57
2019-03-03T13:40:37.971Z,6.97
2019-03-03T13:43:06.325Z,7.33
2019-03-03T13:45:36.335Z,10.53
2019-03-03T13:48:04.596Z,7.30
2019-03-03T13:50:32.859Z,11.97
2019-03-03T13:53:01.097Z,6.10
2019-03-03T13:55:29.385Z,7.70
2019-03-03T13:57:57.627Z,6.30
2019-03-03T14:00:25.966Z,12.27
2019-03-03T14:02:54.198Z,10.20
2019-03-03T14:05:22.790Z,13.70
2019-03-03T14:07:51.048Z,6.20
2019-03-03T14:10:19.303Z,6.03
2019-03-03T14:12:47.576Z,11.37
2019-03-03T14:15:17.578Z,9.37
2019-03-03T14:17:45.917Z,8.77
2019-03-03T14:20:21.539Z,8.37
2019-03-03T14:22:50.063Z,8.70
2019-03-03T14:25:18.302Z,8.97
2019-03-03T14:27:46.597Z,8.53
2019-03-03T14:30:17.668Z,9.50
2019-03-03T14:32:45.912Z,11.63
2019-03-03T14:35:15.739Z,7.47
2019-03-03T14:37:43.988Z,8.30
2019-03-03T14:40:14.869Z,9.33
2019-03-03T14:42:43.120Z,8.33
2019-03-03T14:45:13.518Z,7.97
2019-03-03T14:47:41.773Z,10.97
2019-03-03T14:50:15.550Z,7.27
2019-03-03T14:52:44.944Z,9.27
2019-03-03T14:55:15.473Z,6.70
2019-03-03T14:57:43.719Z,9.90
2019-03-03T15:00:30.117Z,9.67
2019-03-03T15:03:00.011Z,6.67
2019-03-03T15:05:28.496Z,8.43
2019-03-03T15:07:56.753Z,8.73
2019-03-03T15:10:25.017Z,13.50
2019-03-03T15:12:53.269Z,9.07
2019-03-03T15:15:27.305Z,9.00
2019-03-03T15:17:55.559Z,9.03
2019-03-03T15:20:23.879Z,8.87
2019-03-03T15:22:52.138Z,7.67
2019-03-03T15:25:20.391Z,8.53
2019-03-03T15:27:48.671Z,7.00
2019-03-03T15:30:21.729Z,9.13
2019-03-03T15:32:49.981Z,8.03
2019-03-03T15:35:18.314Z,10.40
2019-03-03T15:37:46.744Z,9.83
2019-03-03T15:40:20.410Z,7.47
2019-03-03T15:42:48.744Z,6.87
2019-03-03T15:45:19.693Z,6.33
2019-03-03T15:47:47.959Z,10.03
2019-03-03T15:50:17.146Z,7.57
2019-03-03T15:52:45.427Z,7.23
2019-03-03T15:55:15.919Z,9.50
2019-03-03T15:57:44.196Z,7.07
2019-03-03T16:00:33.694Z,5.83
2019-03-03T16:03:01.975Z,9.20
2019-03-03T16:05:30.230Z,9.97
2019-03-03T16:07:58.482Z,6.40
2019-03-03T16:10:27.574Z,7.07
2019-03-03T16:12:55.822Z,8.63
2019-03-03T16:15:24.078Z,7.07
2019-03-03T16:17:52.400Z,8.17
2019-03-03T16:20:22.021Z,10.67
2019-03-03T16:22:50.278Z,11.00
2019-03-03T16:25:20.169Z,5.90
2019-03-03T16:27:48.428Z,8.00
2019-03-03T16:30:20.947Z,5.37
2019-03-03T16:32:49.200Z,6.40
2019-03-03T16:35:17.449Z,8.37
2019-03-03T16:37:45.726Z,10.60
2019-03-03T16:40:19.368Z,9.20
2019-03-03T16:42:47.626Z,10.73
2019-03-03T16:45:16.423Z,5.97
2019-03-03T16:47:44.670Z,9.10
2019-03-03T16:50:21.089Z,8.70
2019-03-03T16:52:49.347Z,8.07
2019-03-03T16:55:18.613Z,7.10
2019-03-03T16:57:46.890Z,9.43
2019-03-03T17:00:23.671Z,6.77
2019-03-03T17:02:51.922Z,9.93
2019-03-03T17:05:25.132Z,14.33
2019-03-03T17:07:53.956Z,9.33
2019-03-03T17:10:22.210Z,11.33
2019-03-03T17:12:50.467Z,7.33
2019-03-03T17:15:26.731Z,7.50
2019-03-03T17:17:55.049Z,11.13
2019-03-03T17:20:23.302Z,20.70
2019-03-03T17:22:51.566Z,14.23
2019-03-03T17:25:26.033Z,12.03
2019-03-03T17:27:54.297Z,20.60
2019-03-03T17:30:24.869Z,27.60
2019-03-03T17:32:53.124Z,24.47
2019-03-03T17:35:21.388Z,25.73
2019-03-03T17:37:49.647Z,21.47
2019-03-03T17:40:22.172Z,18.70
2019-03-03T17:42:50.442Z,17.03
2019-03-03T17:45:22.731Z,11.23
2019-03-03T17:47:51.233Z,12.67
2019-03-03T17:50:21.436Z,16.97
2019-03-03T17:52:49.691Z,14.87
2019-03-03T17:55:17.960Z,10.00
2019-03-03T17:57:46.210Z,10.47
2019-03-03T18:00:20.321Z,10.63
2019-03-03T18:02:48.590Z,10.47
2019-03-03T18:05:18.410Z,13.83
2019-03-03T18:07:46.716Z,11.40
2019-03-03T18:10:15.112Z,9.00
2019-03-03T18:12:43.372Z,12.53
2019-03-03T18:15:13.276Z,8.63
2019-03-03T18:17:41.536Z,11.50
2019-03-03T18:20:15.426Z,10.43
2019-03-03T18:22:43.717Z,12.23
2019-03-03T18:25:14.194Z,15.53
2019-03-03T18:27:42.491Z,11.17
2019-03-03T18:30:14.148Z,7.67
2019-03-03T18:32:42.413Z,10.17
2019-03-03T18:35:12.917Z,12.17
2019-03-03T18:37:40.738Z,11.70
2019-03-03T18:40:14.745Z,10.23
2019-03-03T18:42:43.013Z,10.67
2019-03-03T18:45:16.080Z,9.37
2019-03-03T18:47:44.344Z,8.57
2019-03-03T18:50:15.177Z,9.60
2019-03-03T18:52:43.422Z,8.93
2019-03-03T18:55:12.156Z,11.00
2019-03-03T18:57:40.524Z,9.80
2019-03-03T19:00:14.450Z,7.30
2019-03-03T19:02:42.717Z,7.03
2019-03-03T19:05:10.968Z,12.10
2019-03-03T19:07:39.237Z,10.13
2019-03-03T19:10:10.599Z,8.33
2019-03-03T19:12:38.944Z,8.53
2019-03-03T19:15:13.072Z,12.63
2019-03-03T19:17:41.324Z,12.40
2019-03-03T19:20:12.280Z,11.60
2019-03-03T19:22:40.537Z,7.40
2019-03-03T19:25:10.951Z,7.20
2019-03-03T19:27:40.880Z,11.13
2019-03-03T19:30:18.107Z,8.33
2019-03-03T19:32:48.098Z,9.33
2019-03-03T19:35:16.359Z,9.87
2019-03-03T19:37:44.612Z,6.63
2019-03-03T19:40:13.533Z,8.47
2019-03-03T19:42:41.826Z,9.80
2019-03-03T19:45:25.231Z,7.47
2019-03-03T19:47:53.528Z,5.50
2019-03-03T19:50:21.860Z,7.13
2019-03-03T19:52:50.199Z,7.93
2019-03-03T19:55:18.459Z,7.17
2019-03-03T19:57:46.710Z,5.80
2019-03-03T20:00:35.046Z,6.37
2019-03-03T20:02:57.364Z,10.10
2019-03-03T20:05:25.617Z,7.40
2019-03-03T20:07:53.911Z,8.37
2019-03-03T20:10:22.191Z,7.30
2019-03-03T20:12:50.471Z,9.77
2019-03-03T20:15:18.728Z,9.60
2019-03-03T20:17:47.581Z,6.07
2019-03-03T20:20:17.287Z,8.67
2019-03-03T20:22:45.549Z,5.30
2019-03-03T20:25:13.830Z,9.60
2019-03-03T20:27:42.453Z,8.83
2019-03-03T20:30:16.655Z,7.83
2019-03-03T20:32:44.978Z,7.57
2019-03-03T20:35:13.260Z,8.67
2019-03-03T20:37:41.511Z,8.57
2019-03-03T20:40:18.756Z,5.73
2019-03-03T20:42:47.009Z,6.80
2019-03-03T20:45:31.964Z,10.07
2019-03-03T20:48:00.222Z,8.20
2019-03-03T20:50:28.485Z,12.33
2019-03-03T20:52:56.735Z,11.40
2019-03-03T20:55:26.556Z,9.63
2019-03-03T20:57:54.813Z,12.57
2019-03-03T21:00:31.057Z,10.70
2019-03-03T21:02:59.302Z,8.53
2019-03-03T21:05:28.410Z,9.10
2019-03-03T21:07:56.676Z,9.50
2019-03-03T21:10:33.479Z,9.10
2019-03-03T21:13:01.748Z,7.40
2019-03-03T21:15:30.030Z,7.20
2019-03-03T21:17:58.279Z,8.73
2019-03-03T21:20:26.598Z,7.63
2019-03-03T21:22:54.865Z,8.60
2019-03-03T21:25:23.121Z,11.27
2019-03-03T21:27:51.389Z,9.33
2019-03-03T21:30:26.707Z,9.47
2019-03-03T21:32:54.962Z,11.57
2019-03-03T21:35:23.249Z,11.00
2019-03-03T21:37:51.475Z,9.67
2019-03-03T21:40:24.054Z,13.33
2019-03-03T21:42:52.322Z,13.27
2019-03-03T21:45:21.738Z,11.90
2019-03-03T21:47:50.039Z,10.27
2019-03-03T21:50:23.035Z,8.90
2019-03-03T21:52:51.283Z,10.70
2019-03-03T21:55:19.552Z,17.27
2019-03-03T21:57:47.803Z,13.17
2019-03-03T22:00:22.094Z,8.33
2019-03-03T22:02:50.384Z,12.93
2019-03-03T22:05:18.627Z,8.23
2019-03-03T22:07:46.896Z,12.57
2019-03-03T22:10:15.148Z,8.93
2019-03-03T22:12:43.419Z,11.23
2019-03-03T22:15:13.702Z,9.00
2019-03-03T22:17:41.976Z,6.87
2019-03-03T22:20:10.964Z,7.73
2019-03-03T22:22:39.226Z,9.97
2019-03-03T22:25:12.932Z,12.07
2019-03-03T22:27:41.221Z,9.50
2019-03-03T22:30:14.620Z,8.90
2019-03-03T22:32:42.868Z,10.30
2019-03-03T22:35:11.134Z,8.57
2019-03-03T22:37:39.378Z,9.00
2019-03-03T22:40:15.850Z,9.73
2019-03-03T22:42:44.119Z,8.90
2019-03-03T22:45:17.027Z,10.20
2019-03-03T22:47:45.284Z,9.97
2019-03-03T22:50:17.817Z,7.47
2019-03-03T22:52:46.075Z,9.40
2019-03-03T22:55:15.694Z,12.47
2019-03-03T22:57:43.945Z,6.77
2019-03-03T23:00:29.507Z,8.90
2019-03-03T23:02:57.755Z,6.87
2019-03-03T23:05:38.297Z,8.50
2019-03-03T23:08:09.822Z,10.00
2019-03-03T23:11:16.098Z,7.10
2019-03-03T23:13:47.608Z,5.67
2019-03-03T23:16:40.054Z,6.27
2019-03-03T23:19:14.237Z,9.23
2019-03-03T23:22:03.641Z,6.53
2019-03-03T23:24:43.912Z,8.33
2019-03-03T23:27:12.194Z,5.87
2019-03-03T23:29:40.545Z,10.60
2019-03-03T23:32:08.885Z,7.30
2019-03-03T23:34:37.128Z,7.27
2019-03-03T23:37:05.450Z,4.97
2019-03-03T23:39:33.738Z,8.20
2019-03-03T23:42:02.066Z,8.97
2019-03-03T23:44:30.476Z,6.43
2019-03-03T23:46:58.779Z,5.70
2019-03-03T23:49:27.042Z,5.63
2019-03-03T23:51:55.339Z,6.63
2019-03-03T23:54:23.590Z,5.33
2019-03-03T23:56:51.848Z,7.60
2019-03-03T23:59:20.115Z,5.33
